createdAt,value
2019-03-04T00:01:04.257Z,16.97
2019-03-04T00:03:34.768Z,14.23
2019-03-04T00:06:05.260Z,16.47
2019-03-04T00:08:35.688Z,15.77
2019-03-04T00:11:06.167Z,16.07
2019-03-04T00:13:36.557Z,13.80
2019-03-04T00:16:07.026Z,14.17
2019-03-04T00:18:37.448Z,14.23
2019-03-04T00:21:07.894Z,13.27
2019-03-04T00:23:38.402Z,10.73
2019-03-04T00:26:08.851Z,11.97
2019-03-04T00:28:39.267Z,15.00
2019-03-04T00:31:09.702Z,14.87
2019-03-04T00:33:40.097Z,14.57
2019-03-04T00:36:10.552Z,14.47
2019-03-04T00:38:40.975Z,14.80
2019-03-04T00:41:11.447Z,11.90
2019-03-04T00:43:41.776Z,14.10
2019-03-04T00:46:12.163Z,14.10
2019-03-04T00:48:42.543Z,13.77
2019-03-04T00:51:13.000Z,13.77
2019-03-04T00:53:43.401Z,13.27
2019-03-04T00:56:13.824Z,12.33
2019-03-04T00:58:44.264Z,14.40
2019-03-04T01:01:14.720Z,12.53
2019-03-04T01:03:45.150Z,12.57
2019-03-04T01:06:15.591Z,13.53
2019-03-04T01:08:46.010Z,12.97
2019-03-04T01:11:16.522Z,12.80
2019-03-04T01:13:46.948Z,14.03
2019-03-04T01:16:17.431Z,12.90
2019-03-04T01:18:47.871Z,12.30
2019-03-04T01:21:18.328Z,12.30
2019-03-04T01:23:48.830Z,13.93
2019-03-04T01:26:19.289Z,13.33
2019-03-04T01:28:49.725Z,14.47
2019-03-04T01:31:20.200Z,12.93
2019-03-04T01:33:50.621Z,13.80
2019-03-04T01:36:21.102Z,12.40
2019-03-04T01:38:51.526Z,14.63
2019-03-04T01:41:22.012Z,15.83
2019-03-04T01:43:52.421Z,11.97
2019-03-04T01:46:22.859Z,14.00
2019-03-04T01:48:53.270Z,14.73
2019-03-04T01:51:23.732Z,14.80
2019-03-04T01:53:54.158Z,16.50
2019-03-04T01:56:24.617Z,14.50
2019-03-04T01:58:55.027Z,14.07
2019-03-04T02:01:25.498Z,14.33
2019-03-04T02:03:55.920Z,13.13
2019-03-04T02:06:26.376Z,13.10
2019-03-04T02:08:56.804Z,15.17
2019-03-04T02:11:27.270Z,12.83
2019-03-04T02:13:57.703Z,17.20
2019-03-04T02:16:28.147Z,13.20
2019-03-04T02:18:58.567Z,13.80
2019-03-04T02:21:28.983Z,12.97
2019-03-04T02:24:02.387Z,13.67
2019-03-04T02:26:34.476Z,13.00
2019-03-04T02:29:04.864Z,14.93
2019-03-04T02:31:35.275Z,11.43
2019-03-04T02:34:05.791Z,14.80
2019-03-04T02:36:36.146Z,13.97
2019-03-04T02:39:07.451Z,14.20
2019-03-04T02:41:37.797Z,14.30
2019-03-04T02:44:08.245Z,15.93
2019-03-04T02:46:38.651Z,16.53
2019-03-04T02:49:09.111Z,14.70
2019-03-04T02:51:39.501Z,14.93
2019-03-04T02:54:09.899Z,15.47
2019-03-04T02:56:40.287Z,16.20
2019-03-04T02:59:10.744Z,15.80
2019-03-04T03:01:41.161Z,15.93
2019-03-04T03:04:11.615Z,14.80
2019-03-04T03:06:42.020Z,15.03
2019-03-04T03:09:13.067Z,16.83
2019-03-04T03:11:43.483Z,16.67
2019-03-04T03:14:13.933Z,18.73
2019-03-04T03:16:44.362Z,18.80
2019-03-04T03:19:14.728Z,18.27
2019-03-04T03:21:45.151Z,18.53
2019-03-04T03:24:15.701Z,15.40
2019-03-04T03:26:46.121Z,18.83
2019-03-04T03:29:16.642Z,14.67
2019-03-04T03:31:47.078Z,15.13
2019-03-04T03:34:17.579Z,16.37
2019-03-04T03:36:47.980Z,19.17
2019-03-04T03:39:18.449Z,17.80
2019-03-04T03:41:48.882Z,19.43
2019-03-04T03:44:19.485Z,23.60
2019-03-04T03:46:49.915Z,21.87
2019-03-04T03:49:20.380Z,21.07
2019-03-04T03:51:50.804Z,23.33
2019-03-04T03:54:21.362Z,25.63
2019-03-04T03:56:51.743Z,20.90
2019-03-04T03:59:22.299Z,22.23
2019-03-04T04:01:52.844Z,21.17
2019-03-04T04:04:23.302Z,20.77
2019-03-04T04:06:53.744Z,19.43
2019-03-04T04:09:24.211Z,20.03
2019-03-04T04:11:54.627Z,23.73
2019-03-04T04:14:25.080Z,24.30
2019-03-04T04:16:55.501Z,20.57
2019-03-04T04:19:25.968Z,20.80
2019-03-04T04:21:56.394Z,19.67
2019-03-04T04:24:26.950Z,20.93
2019-03-04T04:26:57.374Z,20.03
2019-03-04T04:29:27.831Z,17.67
2019-03-04T04:31:58.233Z,17.30
2019-03-04T04:34:28.693Z,15.23
2019-03-04T04:36:59.109Z,19.23
2019-03-04T04:39:29.538Z,19.53
2019-03-04T04:41:59.964Z,17.77
2019-03-04T04:44:30.417Z,18.03
2019-03-04T04:47:01.301Z,16.13
2019-03-04T04:49:31.745Z,19.13
2019-03-04T04:52:02.146Z,20.37
2019-03-04T04:54:32.619Z,21.97
2019-03-04T04:57:03.046Z,21.27
2019-03-04T04:59:33.466Z,19.37
2019-03-04T05:02:03.876Z,18.03
2019-03-04T05:04:34.358Z,20.57
2019-03-04T05:07:04.868Z,18.57
2019-03-04T05:09:35.324Z,22.50
2019-03-04T05:12:05.724Z,19.80
2019-03-04T05:14:36.301Z,19.53
2019-03-04T05:17:06.782Z,24.03
2019-03-04T05:19:37.168Z,23.03
2019-03-04T05:22:07.560Z,19.73
2019-03-04T05:24:38.106Z,20.77
2019-03-04T05:27:08.504Z,18.23
2019-03-04T05:29:38.959Z,20.90
2019-03-04T05:32:09.368Z,22.30
2019-03-04T05:34:39.826Z,19.30
2019-03-04T05:37:10.260Z,18.77
2019-03-04T05:39:40.751Z,21.30
2019-03-04T05:42:11.189Z,21.30
2019-03-04T05:44:41.657Z,21.17
2019-03-04T05:47:12.079Z,20.57
2019-03-04T05:49:42.469Z,19.03
2019-03-04T05:52:12.893Z,20.53
2019-03-04T05:54:43.359Z,22.00
2019-03-04T05:57:13.785Z,18.23
2019-03-04T05:59:44.258Z,21.10
2019-03-04T06:02:14.690Z,20.57
2019-03-04T06:04:45.150Z,20.40
2019-03-04T06:07:17.107Z,20.40
2019-03-04T06:09:47.571Z,20.33
2019-03-04T06:12:17.975Z,20.10
2019-03-04T06:14:48.446Z,21.20
2019-03-04T06:17:18.885Z,20.37
2019-03-04T06:19:49.356Z,17.93
2019-03-04T06:22:19.777Z,19.80
2019-03-04T06:24:50.296Z,21.50
2019-03-04T06:27:21.051Z,19.00
2019-03-04T06:29:51.504Z,19.10
2019-03-04T06:32:21.955Z,19.00
2019-03-04T06:34:52.334Z,20.10
2019-03-04T06:37:22.759Z,19.33
2019-03-04T06:39:53.204Z,19.47
2019-03-04T06:42:23.541Z,19.50
2019-03-04T06:44:53.980Z,21.27
2019-03-04T06:47:24.367Z,20.23
2019-03-04T06:49:54.824Z,17.93
2019-03-04T06:52:26.243Z,18.43
2019-03-04T06:55:02.303Z,18.13
2019-03-04T06:57:32.710Z,17.23
2019-03-04T07:00:24.230Z,17.87
2019-03-04T07:02:54.647Z,20.23
2019-03-04T07:05:45.456Z,20.23
2019-03-04T07:08:35.656Z,18.47
2019-03-04T07:11:06.460Z,21.67
2019-03-04T07:13:36.884Z,19.30
2019-03-04T07:16:07.339Z,20.43
2019-03-04T07:18:37.703Z,19.50
2019-03-04T07:21:08.177Z,20.33
2019-03-04T07:23:38.569Z,19.70
2019-03-04T07:26:09.613Z,18.43
2019-03-04T07:28:39.951Z,19.20
2019-03-04T07:31:10.413Z,16.40
2019-03-04T07:33:40.835Z,16.77
2019-03-04T07:36:11.289Z,17.30
2019-03-04T07:38:47.168Z,17.90
2019-03-04T07:41:17.618Z,17.70
2019-03-04T07:43:48.003Z,18.30
2019-03-04T07:46:18.479Z,19.23
2019-03-04T07:48:48.896Z,18.10
2019-03-04T07:51:19.760Z,17.47
2019-03-04T07:53:50.190Z,17.67
2019-03-04T07:56:23.117Z,16.73
2019-03-04T07:58:53.538Z,19.67
2019-03-04T08:01:24.014Z,19.47
2019-03-04T08:03:54.683Z,20.67
2019-03-04T08:06:25.174Z,19.53
2019-03-04T08:09:15.135Z,16.60
2019-03-04T08:12:11.124Z,15.57
2019-03-04T08:14:41.561Z,16.90
2019-03-04T08:17:12.053Z,16.57
2019-03-04T08:19:42.453Z,15.00
2019-03-04T08:22:12.896Z,15.93
2019-03-04T08:24:44.390Z,16.83
2019-03-04T08:27:15.063Z,16.73
2019-03-04T08:29:45.554Z,15.87
2019-03-04T08:32:17.223Z,15.40
2019-03-04T08:34:47.690Z,17.40
2019-03-04T08:37:18.173Z,16.20
2019-03-04T08:39:48.700Z,17.93
2019-03-04T08:42:20.063Z,19.13
2019-03-04T08:44:50.470Z,16.63
2019-03-04T08:47:20.925Z,14.43
2019-03-04T08:49:51.335Z,16.87
2019-03-04T08:52:21.981Z,14.30
2019-03-04T08:54:53.569Z,13.80
2019-03-04T08:57:24.004Z,14.90
2019-03-04T08:59:56.071Z,14.87
2019-03-04T09:02:26.562Z,12.87
2019-03-04T09:04:56.983Z,14.90
2019-03-04T09:07:27.445Z,13.70
2019-03-04T09:09:57.846Z,14.57
2019-03-04T09:12:28.351Z,15.73
2019-03-04T09:14:58.777Z,13.13
2019-03-04T09:17:29.234Z,14.27
2019-03-04T09:19:59.627Z,13.63
2019-03-04T09:22:30.105Z,13.70
2019-03-04T09:25:00.511Z,13.93
2019-03-04T09:27:31.088Z,14.33
2019-03-04T09:30:05.060Z,12.70
2019-03-04T09:32:40.011Z,14.03
2019-03-04T09:35:18.393Z,13.70
2019-03-04T09:37:48.853Z,13.77
2019-03-04T09:40:21.578Z,14.37
2019-03-04T09:42:54.319Z,12.63
2019-03-04T09:45:24.722Z,13.10
2019-03-04T09:47:55.408Z,13.30
2019-03-04T09:50:33.526Z,15.53
2019-03-04T09:53:04.264Z,14.20
2019-03-04T09:55:34.685Z,13.93
2019-03-04T09:58:05.183Z,13.17
2019-03-04T10:00:38.275Z,15.10
2019-03-04T10:03:26.997Z,13.03
2019-03-04T10:06:33.592Z,16.27
2019-03-04T10:09:12.699Z,13.27
2019-03-04T10:11:53.508Z,13.80
2019-03-04T10:14:35.598Z,14.30
2019-03-04T10:17:08.942Z,14.10
2019-03-04T10:20:00.477Z,16.73
2019-03-04T10:22:49.139Z,14.80
2019-03-04T10:25:38.605Z,16.33
2019-03-04T10:28:26.974Z,14.50
2019-03-04T10:31:33.521Z,15.63
2019-03-04T10:34:38.371Z,14.47
2019-03-04T10:37:17.723Z,15.97
2019-03-04T10:39:55.121Z,15.33
2019-03-04T10:42:47.731Z,16.00
2019-03-04T10:45:35.765Z,15.70
2019-03-04T10:48:08.974Z,15.40
2019-03-04T10:50:39.362Z,15.67
2019-03-04T10:53:09.843Z,16.47
2019-03-04T10:55:42.264Z,16.40
2019-03-04T10:58:12.419Z,15.93
2019-03-04T11:00:42.838Z,14.93
2019-03-04T11:03:13.288Z,16.03
2019-03-04T11:05:43.706Z,15.53
2019-03-04T11:08:23.518Z,18.60
2019-03-04T11:10:53.977Z,14.63
2019-03-04T11:13:24.454Z,15.50
2019-03-04T11:15:59.782Z,18.50
2019-03-04T11:18:30.234Z,17.93
2019-03-04T11:21:01.358Z,14.17
2019-03-04T11:23:31.839Z,15.27
2019-03-04T11:26:02.201Z,16.93
2019-03-04T11:28:32.762Z,15.67
2019-03-04T11:31:03.577Z,15.63
2019-03-04T11:33:34.161Z,16.73
2019-03-04T11:36:04.589Z,17.00
2019-03-04T11:38:40.916Z,16.97
2019-03-04T11:41:18.242Z,17.10
2019-03-04T11:44:14.627Z,17.70
2019-03-04T11:46:45.031Z,17.10
2019-03-04T11:49:18.412Z,16.87
2019-03-04T11:51:49.407Z,20.07
2019-03-04T11:54:21.930Z,19.20
2019-03-04T11:56:52.335Z,16.67
2019-03-04T11:59:26.116Z,20.70
2019-03-04T12:01:58.250Z,18.27
2019-03-04T12:04:31.970Z,19.87
2019-03-04T12:07:03.900Z,18.83
2019-03-04T12:09:34.336Z,17.83
2019-03-04T12:12:04.725Z,16.87
2019-03-04T12:14:36.740Z,18.33
2019-03-04T12:17:08.696Z,18.67
2019-03-04T12:19:39.146Z,19.17
2019-03-04T12:22:12.864Z,16.23
2019-03-04T12:24:43.348Z,18.60
2019-03-04T12:27:13.752Z,18.37
2019-03-04T12:29:44.803Z,18.50
2019-03-04T12:32:18.130Z,18.70
2019-03-04T12:34:59.327Z,15.80
2019-03-04T12:37:33.154Z,18.27
2019-03-04T12:40:07.751Z,17.57
2019-03-04T12:53:08.249Z,19.03
2019-03-04T12:55:38.665Z,21.40
2019-03-04T12:58:11.872Z,17.13
2019-03-04T13:00:42.349Z,16.17
2019-03-04T13:03:18.236Z,18.80
2019-03-04T13:05:48.745Z,16.50
2019-03-04T13:08:19.277Z,17.67
2019-03-04T13:10:49.691Z,18.57
2019-03-04T13:13:20.255Z,17.00
2019-03-04T13:15:50.617Z,14.93
2019-03-04T13:18:21.116Z,16.70
2019-03-04T13:20:51.546Z,18.40
2019-03-04T13:23:22.117Z,17.53
2019-03-04T13:25:52.562Z,18.60
2019-03-04T13:28:22.986Z,20.17
2019-03-04T13:30:53.578Z,22.97
2019-03-04T13:33:23.959Z,18.33
2019-03-04T13:35:54.404Z,19.00
2019-03-04T13:38:37.584Z,19.90
2019-03-04T13:41:24.261Z,19.50
2019-03-04T13:43:46.477Z,20.70
2019-03-04T13:46:16.958Z,21.63
2019-03-04T13:48:47.389Z,20.33
2019-03-04T13:51:17.937Z,23.47
2019-03-04T13:53:48.371Z,20.70
2019-03-04T13:56:18.832Z,22.00
2019-03-04T13:58:49.212Z,21.57
2019-03-04T14:01:19.673Z,20.00
2019-03-04T14:03:50.087Z,18.83
2019-03-04T14:06:20.526Z,20.53
2019-03-04T14:08:53.056Z,20.33
2019-03-04T14:11:32.015Z,22.33
2019-03-04T14:14:06.554Z,23.53
2019-03-04T14:16:37.006Z,20.70
2019-03-04T14:19:07.427Z,20.17
2019-03-04T14:21:38.128Z,18.70
2019-03-04T14:24:11.693Z,21.40
2019-03-04T14:26:42.158Z,21.33
2019-03-04T14:29:12.575Z,18.67
2019-03-04T14:31:43.079Z,19.07
2019-03-04T14:34:13.511Z,19.43
2019-03-04T14:36:43.971Z,19.37
2019-03-04T14:39:15.479Z,17.77
2019-03-04T14:41:45.963Z,20.43
2019-03-04T14:44:17.583Z,20.33
2019-03-04T14:46:49.294Z,23.63
2019-03-04T14:49:19.693Z,32.13
2019-03-04T14:51:50.789Z,16.20
2019-03-04T14:54:21.563Z,22.00
2019-03-04T14:56:52.053Z,18.67
2019-03-04T14:59:22.719Z,22.47
2019-03-04T15:01:54.879Z,20.50
2019-03-04T15:04:25.360Z,19.90
2019-03-04T15:06:56.126Z,23.43
2019-03-04T15:09:26.654Z,23.53
2019-03-04T15:11:57.129Z,21.07
2019-03-04T15:14:27.639Z,20.20
2019-03-04T15:17:03.397Z,20.27
2019-03-04T15:19:30.821Z,19.67
2019-03-04T15:22:01.458Z,19.40
2019-03-04T15:24:34.319Z,20.50
2019-03-04T15:27:06.513Z,21.47
2019-03-04T15:29:36.943Z,22.97
2019-03-04T15:32:09.485Z,21.77
2019-03-04T15:34:39.914Z,19.57
2019-03-04T15:37:10.595Z,21.27
2019-03-04T15:39:41.090Z,21.00
2019-03-04T15:42:11.535Z,21.83
2019-03-04T15:44:41.967Z,21.70
2019-03-04T15:47:12.423Z,21.43
2019-03-04T15:49:42.897Z,21.77
2019-03-04T15:52:13.386Z,20.97
2019-03-04T15:54:43.853Z,28.93
2019-03-04T15:57:15.614Z,24.23
2019-03-04T15:59:46.743Z,24.03
2019-03-04T16:02:17.583Z,24.67
2019-03-04T16:04:48.096Z,28.87
2019-03-04T16:07:18.527Z,32.17
2019-03-04T16:09:48.915Z,23.80
2019-03-04T16:12:21.243Z,25.40
2019-03-04T16:14:51.641Z,27.80
2019-03-04T16:17:22.103Z,32.70
2019-03-04T16:19:52.528Z,43.57
2019-03-04T16:22:22.976Z,32.43
2019-03-04T16:24:53.476Z,25.40
2019-03-04T16:27:23.978Z,26.47
2019-03-04T16:29:54.364Z,25.63
2019-03-04T16:32:25.831Z,44.17
2019-03-04T16:34:56.242Z,40.57
2019-03-04T16:37:26.701Z,26.50
2019-03-04T16:39:57.154Z,26.30
2019-03-04T16:42:27.705Z,27.77
2019-03-04T16:44:58.138Z,28.07
2019-03-04T16:47:28.677Z,30.93
2019-03-04T16:49:59.273Z,32.50
2019-03-04T16:52:29.739Z,32.73
2019-03-04T16:55:00.331Z,34.17
2019-03-04T16:57:30.803Z,27.43
2019-03-04T17:00:02.616Z,25.70
2019-03-04T17:02:33.399Z,23.17
2019-03-04T17:05:04.315Z,21.77
2019-03-04T17:07:34.793Z,23.07
2019-03-04T17:10:08.072Z,23.73
2019-03-04T17:12:38.627Z,25.23
2019-03-04T17:15:11.903Z,24.40
2019-03-04T17:17:42.370Z,24.53
2019-03-04T17:20:14.173Z,23.90
2019-03-04T17:22:44.906Z,22.20
2019-03-04T17:25:23.059Z,22.90
2019-03-04T17:27:53.538Z,22.90
2019-03-04T17:30:25.554Z,24.67
2019-03-04T17:32:57.192Z,26.03
2019-03-04T17:35:27.498Z,27.13
2019-03-04T17:37:57.949Z,26.10
2019-03-04T17:40:32.000Z,25.20
2019-03-04T17:43:02.426Z,26.40
2019-03-04T17:45:32.907Z,32.13
2019-03-04T17:48:03.366Z,23.80
2019-03-04T17:50:41.056Z,24.53
2019-03-04T17:53:13.102Z,25.03
2019-03-04T17:55:44.791Z,23.77
2019-03-04T17:58:15.244Z,24.20
2019-03-04T18:00:47.197Z,22.23
2019-03-04T18:03:17.573Z,24.03
2019-03-04T18:05:47.967Z,22.30
2019-03-04T18:08:18.414Z,25.43
2019-03-04T18:10:48.824Z,25.97
2019-03-04T18:13:19.327Z,24.83
2019-03-04T18:15:49.679Z,24.77
2019-03-04T18:18:20.128Z,22.27
2019-03-04T18:20:50.506Z,24.40
2019-03-04T18:23:20.949Z,22.50
2019-03-04T18:25:54.250Z,25.27
2019-03-04T18:28:46.603Z,23.73
2019-03-04T18:31:35.344Z,26.73
2019-03-04T18:34:32.512Z,27.83
2019-03-04T18:37:22.288Z,25.87
2019-03-04T18:40:16.761Z,27.77
2019-03-04T18:42:56.068Z,25.80
2019-03-04T18:45:51.943Z,25.23
2019-03-04T18:48:31.153Z,25.87
2019-03-04T18:51:01.590Z,25.23
2019-03-04T18:53:32.010Z,26.70
2019-03-04T18:56:02.563Z,26.17
2019-03-04T18:58:32.902Z,25.10
2019-03-04T19:01:03.365Z,27.90
2019-03-04T19:03:33.755Z,27.27
2019-03-04T19:06:04.232Z,26.63
2019-03-04T19:08:34.597Z,28.70
2019-03-04T19:11:05.171Z,28.13
2019-03-04T19:13:35.565Z,29.10
2019-03-04T19:16:06.335Z,29.03
2019-03-04T19:18:36.764Z,28.33
2019-03-04T19:21:07.244Z,32.67
2019-03-04T19:23:37.662Z,32.27
2019-03-04T19:26:08.227Z,29.97
2019-03-04T19:28:38.629Z,27.27
2019-03-04T19:31:09.194Z,28.37
2019-03-04T19:33:39.580Z,30.37
2019-03-04T19:36:11.039Z,30.83
2019-03-04T19:38:41.454Z,27.90
2019-03-04T19:41:11.898Z,32.40
2019-03-04T19:43:42.426Z,29.23
2019-03-04T19:46:12.876Z,30.43
2019-03-04T19:48:43.276Z,28.00
2019-03-04T19:51:13.837Z,30.80
2019-03-04T19:53:44.214Z,29.17
2019-03-04T19:56:14.666Z,29.00
2019-03-04T19:58:45.080Z,30.33
2019-03-04T20:01:15.487Z,29.87
2019-03-04T20:03:45.878Z,27.53
2019-03-04T20:06:16.307Z,29.17
2019-03-04T20:08:46.648Z,27.97
2019-03-04T20:11:17.102Z,26.70
2019-03-04T20:13:47.526Z,30.27
2019-03-04T20:16:17.956Z,29.47
2019-03-04T20:18:48.366Z,28.87
2019-03-04T20:21:18.822Z,28.93
2019-03-04T20:23:49.248Z,27.73
2019-03-04T20:26:19.737Z,29.17
2019-03-04T20:28:50.177Z,27.70
2019-03-04T20:31:20.644Z,29.10
2019-03-04T20:33:51.068Z,28.83
2019-03-04T20:36:22.443Z,25.27
2019-03-04T20:38:52.859Z,28.30
2019-03-04T20:41:23.231Z,28.07
2019-03-04T20:43:53.637Z,27.07
2019-03-04T20:46:24.093Z,27.60
2019-03-04T20:48:54.447Z,29.13
2019-03-04T20:51:24.920Z,29.63
2019-03-04T20:53:55.334Z,27.13
2019-03-04T20:56:25.805Z,26.37
2019-03-04T20:58:56.215Z,25.63
2019-03-04T21:01:26.775Z,27.40
2019-03-04T21:03:57.166Z,27.50
2019-03-04T21:06:27.807Z,22.43
2019-03-04T21:08:58.227Z,25.67
2019-03-04T21:11:28.705Z,26.23
2019-03-04T21:13:59.112Z,26.43
2019-03-04T21:16:29.578Z,26.63
2019-03-04T21:19:00.084Z,28.60
2019-03-04T21:21:30.548Z,27.50
2019-03-04T21:24:01.214Z,24.77
2019-03-04T21:26:31.772Z,26.33
2019-03-04T21:29:08.048Z,29.60
2019-03-04T21:31:53.544Z,29.03
2019-03-04T21:34:43.047Z,23.93
2019-03-04T21:37:17.543Z,26.80
2019-03-04T21:40:16.654Z,26.30
2019-03-04T21:42:55.820Z,24.47
2019-03-04T21:45:47.271Z,25.37
2019-03-04T21:48:23.349Z,25.03
2019-03-04T21:51:19.034Z,23.93
2019-03-04T21:53:51.387Z,26.63
2019-03-04T21:56:42.879Z,27.97
2019-03-04T21:59:13.248Z,27.77
2019-03-04T22:01:46.560Z,24.63
2019-03-04T22:04:16.995Z,25.27
2019-03-04T22:06:47.387Z,24.67
2019-03-04T22:09:17.816Z,27.80
2019-03-04T22:11:48.217Z,25.00
2019-03-04T22:14:18.649Z,26.33
2019-03-04T22:16:49.063Z,26.87
2019-03-04T22:19:19.446Z,26.67
2019-03-04T22:21:49.843Z,27.63
2019-03-04T22:24:20.306Z,25.37
2019-03-04T22:26:50.703Z,23.47
2019-03-04T22:29:21.105Z,23.60
2019-03-04T22:31:51.509Z,27.83
2019-03-04T22:34:21.908Z,24.30
2019-03-04T22:36:52.315Z,26.27
2019-03-04T22:39:23.762Z,25.53
2019-03-04T22:41:54.139Z,24.67
2019-03-04T22:44:24.543Z,27.53
2019-03-04T22:46:54.947Z,22.47
2019-03-04T22:49:25.404Z,28.33
2019-03-04T22:51:55.783Z,24.07
2019-03-04T22:54:26.251Z,26.13
2019-03-04T22:56:56.653Z,24.67
2019-03-04T22:59:27.100Z,24.07
2019-03-04T23:01:58.313Z,25.13
2019-03-04T23:04:28.748Z,25.57
2019-03-04T23:07:04.742Z,26.60
2019-03-04T23:09:47.014Z,24.17
2019-03-04T23:12:35.331Z,26.23
2019-03-04T23:15:08.714Z,25.30
2019-03-04T23:17:39.122Z,23.80
2019-03-04T23:20:09.587Z,23.37
2019-03-04T23:22:39.987Z,24.23
2019-03-04T23:25:13.143Z,22.93
2019-03-04T23:27:43.535Z,27.03
2019-03-04T23:30:15.823Z,28.27
2019-03-04T23:32:46.211Z,25.13
2019-03-04T23:35:16.664Z,25.30
2019-03-04T23:37:47.074Z,25.73
2019-03-04T23:40:18.519Z,22.03
2019-03-04T23:42:48.899Z,29.93
2019-03-04T23:45:19.356Z,28.50
2019-03-04T23:47:49.772Z,27.03
2019-03-04T23:53:16.387Z,23.60
2019-03-04T23:55:46.778Z,26.77
2019-03-04T23:58:17.248Z,27.03
